Time,TemperatureF,DewpointF,PressureIn,WindDirection,WindDirectionDegrees,WindSpeedMPH,WindSpeedGustMPH,Humidity,HourlyPrecipIn,Conditions,Clouds,dailyrainin,SoftwareType,DateUTC
2013-08-04 00:14:00,60.6,54.0,29.71,SSW,205,0.0,-999.0,78,-99.99,,,0.52,weatherlink.com 1.10,2013-08-04 06:14:00,
2013-08-04 00:29:00,60.8,54.0,29.69,West,259,0.0,-999.0,77,-99.99,,,0.52,weatherlink.com 1.10,2013-08-04 06:29:00,
2013-08-04 00:44:00,61.4,53.0,29.68,WSW,244,0.0,-999.0,75,-99.99,,,0.52,weatherlink.com 1.10,2013-08-04 06:44:00,
2013-08-04 00:59:00,62.3,54.0,29.65,WNW,284,0.0,-999.0,73,-99.99,,,0.52,weatherlink.com 1.10,2013-08-04 06:59:00,
2013-08-04 01:14:00,62.4,53.0,29.64,West,263,0.0,-999.0,72,-99.99,,,0.52,weatherlink.com 1.10,2013-08-04 07:14:00,
2013-08-04 01:29:00,62.5,53.0,29.62,South,169,0.0,-999.0,71,-99.99,,,0.00,weatherlink.com 1.10,2013-08-04 07:29:00,
2013-08-04 01:44:00,63.0,54.0,29.60,SSW,196,3.0,-999.0,72,-99.99,,,0.00,weatherlink.com 1.10,2013-08-04 07:44:00,
2013-08-04 01:59:00,62.7,55.0,29.59,SSE,152,0.0,-999.0,75,-99.99,,,0.00,weatherlink.com 1.10,2013-08-04 07:59:00,
2013-08-04 02:14:00,61.8,54.0,29.61,SSE,168,0.0,-999.0,75,-99.99,,,0.00,weatherlink.com 1.10,2013-08-04 08:14:00,
2013-08-04 02:29:00,62.0,53.0,29.59,SSE,163,0.0,-999.0,73,-99.99,,,0.00,weatherlink.com 1.10,2013-08-04 08:29:00,
2013-08-04 02:44:00,62.3,53.0,29.60,SSE,155,0.0,-999.0,72,-99.99,,,0.00,weatherlink.com 1.10,2013-08-04 08:44:00,
2013-08-04 02:59:00,62.3,53.0,29.58,South,172,0.0,-999.0,72,-99.99,,,0.00,weatherlink.com 1.10,2013-08-04 08:59:00,
2013-08-04 03:14:00,62.0,53.0,29.58,South,188,0.0,-999.0,72,-99.99,,,0.00,weatherlink.com 1.10,2013-08-04 09:14:00,
2013-08-04 03:29:00,62.5,53.0,29.58,South,173,0.0,-999.0,70,-99.99,,,0.00,weatherlink.com 1.10,2013-08-04 09:29:00,
2013-08-04 03:44:00,62.6,53.0,29.57,SSE,165,0.0,-999.0,70,-99.99,,,0.00,weatherlink.com 1.10,2013-08-04 09:44:00,
2013-08-04 03:59:00,63.0,53.0,29.56,South,178,0.0,-999.0,69,-99.99,,,0.00,weatherlink.com 1.10,2013-08-04 09:59:00,
2013-08-04 04:14:00,62.8,53.0,29.56,South,178,0.0,-999.0,70,-99.99,,,0.00,weatherlink.com 1.10,2013-08-04 10:14:00,
2013-08-04 04:29:00,62.7,52.0,29.56,South,178,0.0,-999.0,69,-99.99,,,0.00,weatherlink.com 1.10,2013-08-04 10:29:00,
2013-08-04 04:44:00,62.5,53.0,29.57,South,178,0.0,-999.0,72,-99.99,,,0.00,weatherlink.com 1.10,2013-08-04 10:44:00,
2013-08-04 04:59:00,60.8,52.0,29.57,South,178,0.0,-999.0,74,-99.99,,,0.00,weatherlink.com 1.10,2013-08-04 10:59:00,
2013-08-04 05:14:00,59.0,53.0,29.58,NW,309,1.0,-999.0,79,-99.99,,,0.00,weatherlink.com 1.10,2013-08-04 11:14:00,
2013-08-04 05:29:00,59.0,52.0,29.60,NW,309,0.0,-999.0,78,-99.99,,,0.00,weatherlink.com 1.10,2013-08-04 11:29:00,
2013-08-04 05:44:00,59.8,52.0,29.70,NW,309,0.0,-999.0,74,-99.99,,,0.00,weatherlink.com 1.10,2013-08-04 11:44:00,
2013-08-04 05:59:00,60.4,52.0,29.70,NW,309,0.0,-999.0,73,-99.99,,,0.00,weatherlink.com 1.10,2013-08-04 11:59:00,
2013-08-04 06:14:00,59.6,51.0,29.70,NW,309,0.0,-999.0,74,-99.99,,,0.00,weatherlink.com 1.10,2013-08-04 12:14:00,
2013-08-04 06:29:00,59.6,51.0,29.70,West,277,0.0,-999.0,74,-99.99,,,0.00,weatherlink.com 1.10,2013-08-04 12:29:00,
2013-08-04 06:44:00,61.3,53.0,29.74,North,355,0.0,-999.0,73,-99.99,,,0.00,weatherlink.com 1.10,2013-08-04 12:44:00,
2013-08-04 06:59:00,61.4,53.0,29.73,ESE,115,0.0,-999.0,75,-99.99,,,0.00,weatherlink.com 1.10,2013-08-04 12:59:00,
2013-08-04 07:14:00,62.9,54.0,29.74,ENE,76,0.0,-999.0,73,-99.99,,,0.00,weatherlink.com 1.10,2013-08-04 13:14:00,
2013-08-04 07:29:00,66.6,56.0,29.73,East,84,0.0,-999.0,68,-99.99,,,0.00,weatherlink.com 1.10,2013-08-04 13:29:00,
2013-08-04 07:44:00,68.4,56.0,29.73,East,84,0.0,-999.0,64,-99.99,,,0.00,weatherlink.com 1.10,2013-08-04 13:44:00,
2013-08-04 08:00:00,71.6,56.0,29.71,ENE,67,0.0,-999.0,59,-99.99,,,0.00,weatherlink.com 1.10,2013-08-04 14:00:00,
2013-08-04 08:15:00,71.3,57.0,29.70,North,355,0.0,-999.0,61,-99.99,,,0.00,weatherlink.com 1.10,2013-08-04 14:15:00,
2013-08-04 08:30:00,72.1,57.0,29.71,North,5,0.0,-999.0,59,-99.99,,,0.00,weatherlink.com 1.10,2013-08-04 14:30:00,
2013-08-04 08:45:00,70.8,57.0,29.72,North,360,0.0,-999.0,63,-99.99,,,0.00,weatherlink.com 1.10,2013-08-04 14:45:00,
2013-08-04 09:00:00,72.1,58.0,29.71,NE,34,4.0,-999.0,62,-99.99,,,0.00,weatherlink.com 1.10,2013-08-04 15:00:00,
2013-08-04 09:15:00,74.2,58.0,29.71,NE,34,2.0,-999.0,58,-99.99,,,0.00,weatherlink.com 1.10,2013-08-04 15:15:00,
2013-08-04 09:30:00,75.2,59.0,29.70,NNE,30,0.0,-999.0,57,-99.99,,,0.00,weatherlink.com 1.10,2013-08-04 15:30:00,
2013-08-04 09:45:00,76.0,59.0,29.70,NNE,30,0.0,-999.0,55,-99.99,,,0.00,weatherlink.com 1.10,2013-08-04 15:45:00,
2013-08-04 10:00:00,77.0,58.0,29.69,NNE,19,0.0,-999.0,53,-99.99,,,0.00,weatherlink.com 1.10,2013-08-04 16:00:00,
2013-08-04 10:15:00,78.6,58.0,29.69,NNE,20,0.0,-999.0,49,-99.99,,,0.00,weatherlink.com 1.10,2013-08-04 16:15:00,
2013-08-04 10:30:00,78.2,57.0,29.67,NE,49,0.0,-999.0,49,-99.99,,,0.00,weatherlink.com 1.10,2013-08-04 16:30:00,
2013-08-04 10:45:00,81.6,58.0,29.67,NE,38,0.0,-999.0,45,-99.99,,,0.00,weatherlink.com 1.10,2013-08-04 16:45:00,
2013-08-04 11:00:00,83.0,60.0,29.65,NE,39,0.0,-999.0,45,-99.99,,,0.00,weatherlink.com 1.10,2013-08-04 17:00:00,
2013-08-04 11:15:00,84.8,60.0,29.65,ENE,57,5.0,-999.0,43,-99.99,,,0.00,weatherlink.com 1.10,2013-08-04 17:15:00,
2013-08-04 11:30:00,83.9,60.0,29.63,NE,53,0.0,-999.0,45,-99.99,,,0.00,weatherlink.com 1.10,2013-08-04 17:30:00,
2013-08-04 11:45:00,86.1,60.0,29.62,NE,46,0.0,-999.0,42,-99.99,,,0.00,weatherlink.com 1.10,2013-08-04 17:45:00,
2013-08-04 12:00:00,87.7,60.0,29.61,ENE,65,0.0,-999.0,39,-99.99,,,0.00,weatherlink.com 1.10,2013-08-04 18:00:00,
2013-08-04 12:15:00,87.1,59.0,29.60,NE,41,4.0,-999.0,39,-99.99,,,0.00,weatherlink.com 1.10,2013-08-04 18:15:00,
2013-08-04 12:30:00,88.3,60.0,29.60,East,89,0.0,-999.0,38,-99.99,,,0.00,weatherlink.com 1.10,2013-08-04 18:30:00,
2013-08-04 12:45:00,88.1,62.0,29.60,North,360,0.0,-999.0,42,-99.99,,,0.00,weatherlink.com 1.10,2013-08-04 18:45:00,
2013-08-04 13:00:00,88.1,60.0,29.58,SE,134,0.0,-999.0,39,-99.99,,,0.00,weatherlink.com 1.10,2013-08-04 19:00:00,
2013-08-04 13:15:00,87.8,58.0,29.60,ESE,122,0.0,-999.0,36,-99.99,,,0.00,weatherlink.com 1.10,2013-08-04 19:15:00,
2013-08-04 13:30:00,86.0,57.0,29.59,SE,135,0.0,-999.0,37,-99.99,,,0.00,weatherlink.com 1.10,2013-08-04 19:30:00,
2013-08-04 13:45:00,90.7,61.0,29.58,South,182,1.0,-999.0,37,-99.99,,,0.00,weatherlink.com 1.10,2013-08-04 19:45:00,
2013-08-04 14:00:00,86.7,55.0,29.57,SE,126,4.0,-999.0,34,-99.99,,,0.00,weatherlink.com 1.10,2013-08-04 20:00:00,
2013-08-04 14:15:00,86.6,54.0,29.60,ESE,111,0.0,-999.0,33,-99.99,,,0.00,weatherlink.com 1.10,2013-08-04 20:15:00,
2013-08-04 14:30:00,89.2,58.0,29.59,ESE,116,0.0,-999.0,35,-99.99,,,0.00,weatherlink.com 1.10,2013-08-04 20:30:00,
2013-08-04 14:45:00,87.5,54.0,29.58,SW,217,0.0,-999.0,32,-99.99,,,0.00,weatherlink.com 1.10,2013-08-04 20:45:00,
2013-08-04 15:01:00,89.1,57.0,29.58,NW,309,0.0,-999.0,34,-99.99,,,0.00,weatherlink.com 1.10,2013-08-04 21:01:00,
2013-08-04 15:16:00,88.4,53.0,29.58,NE,44,2.0,-999.0,30,-99.99,,,0.00,weatherlink.com 1.10,2013-08-04 21:16:00,
2013-08-04 15:31:00,86.5,53.0,29.58,WNW,302,0.0,-999.0,32,-99.99,,,0.00,weatherlink.com 1.10,2013-08-04 21:31:00,
2013-08-04 15:46:00,86.8,58.0,29.59,NNW,342,6.0,-999.0,38,-99.99,,,0.00,weatherlink.com 1.10,2013-08-04 21:46:00,
2013-08-04 16:01:00,89.2,57.0,29.58,West,277,8.0,-999.0,33,-99.99,,,0.00,weatherlink.com 1.10,2013-08-04 22:01:00,
2013-08-04 16:16:00,91.1,58.0,29.57,NNE,24,1.0,-999.0,33,-99.99,,,0.00,weatherlink.com 1.10,2013-08-04 22:16:00,
2013-08-04 16:31:00,90.2,54.0,29.57,WNW,300,5.0,-999.0,29,-99.99,,,0.00,weatherlink.com 1.10,2013-08-04 22:31:00,
2013-08-04 16:46:00,88.6,53.0,29.59,NNW,329,7.0,-999.0,29,-99.99,,,0.00,weatherlink.com 1.10,2013-08-04 22:46:00,
2013-08-04 17:01:00,88.9,54.0,29.59,NW,309,6.0,-999.0,30,-99.99,,,0.00,weatherlink.com 1.10,2013-08-04 23:01:00,
2013-08-04 17:15:00,85.2,50.0,29.60,NNW,330,0.0,-999.0,30,-99.99,,,0.00,weatherlink.com 1.10,2013-08-04 23:15:00,
2013-08-04 17:31:00,83.6,51.0,29.62,NW,315,4.0,-999.0,32,-99.99,,,0.00,weatherlink.com 1.10,2013-08-04 23:31:00,
2013-08-04 17:46:00,82.4,52.0,29.64,SE,128,0.0,-999.0,35,-99.99,,,0.00,weatherlink.com 1.10,2013-08-04 23:46:00,
2013-08-04 18:01:00,79.8,52.0,29.64,SSW,192,0.0,-999.0,38,-99.99,,,0.00,weatherlink.com 1.10,2013-08-05 00:01:00,
2013-08-04 18:15:00,79.5,52.0,29.66,WNW,301,0.0,-999.0,38,-99.99,,,0.00,weatherlink.com 1.10,2013-08-05 00:15:00,
2013-08-04 18:30:00,79.9,53.0,29.66,South,177,0.0,-999.0,39,-99.99,,,0.00,weatherlink.com 1.10,2013-08-05 00:30:00,
2013-08-04 18:46:00,78.7,53.0,29.62,WSW,242,0.0,-999.0,41,-99.99,,,0.00,weatherlink.com 1.10,2013-08-05 00:46:00,
2013-08-04 19:00:00,78.6,53.0,29.62,NW,325,7.0,-999.0,41,-99.99,,,0.00,weatherlink.com 1.10,2013-08-05 01:00:00,
2013-08-04 19:16:00,77.8,54.0,29.64,West,260,0.0,-999.0,44,-99.99,,,0.00,weatherlink.com 1.10,2013-08-05 01:16:00,
2013-08-04 19:31:00,76.2,54.0,29.65,SSE,148,5.0,-999.0,46,-99.99,,,0.00,weatherlink.com 1.10,2013-08-05 01:31:00,
2013-08-04 19:46:00,75.6,55.0,29.62,SSE,150,7.0,-999.0,49,-99.99,,,0.00,weatherlink.com 1.10,2013-08-05 01:46:00,
2013-08-04 20:01:00,75.1,55.0,29.64,SE,144,6.0,-999.0,50,-99.99,,,0.00,weatherlink.com 1.10,2013-08-05 02:01:00,
2013-08-04 20:16:00,74.7,54.0,29.65,SE,138,4.0,-999.0,49,-99.99,,,0.00,weatherlink.com 1.10,2013-08-05 02:16:00,
2013-08-04 20:31:00,75.2,54.0,29.65,South,178,1.0,-999.0,48,-99.99,,,0.00,weatherlink.com 1.10,2013-08-05 02:31:00,
2013-08-04 20:46:00,73.1,56.0,29.66,South,176,0.0,-999.0,55,-99.99,,,0.00,weatherlink.com 1.10,2013-08-05 02:46:00,
2013-08-04 21:01:00,71.1,56.0,29.67,South,171,0.0,-999.0,59,-99.99,,,0.00,weatherlink.com 1.10,2013-08-05 03:01:00,
2013-08-04 21:15:00,70.2,56.0,29.67,SSW,192,0.0,-999.0,61,-99.99,,,0.00,weatherlink.com 1.10,2013-08-05 03:15:00,
2013-08-04 21:31:00,68.9,57.0,29.68,SW,226,0.0,-999.0,65,-99.99,,,0.00,weatherlink.com 1.10,2013-08-05 03:31:00,
2013-08-04 21:46:00,68.5,56.0,29.66,WNW,296,1.0,-999.0,65,-99.99,,,0.00,weatherlink.com 1.10,2013-08-05 03:46:00,
2013-08-04 22:01:00,67.9,56.0,29.66,WSW,238,0.0,-999.0,66,-99.99,,,0.00,weatherlink.com 1.10,2013-08-05 04:01:00,
2013-08-04 22:16:00,70.0,54.0,29.66,South,190,0.0,-999.0,57,-99.99,,,0.00,weatherlink.com 1.10,2013-08-05 04:16:00,
2013-08-04 22:31:00,69.7,56.0,29.63,SSE,148,7.0,-999.0,61,-99.99,,,0.00,weatherlink.com 1.10,2013-08-05 04:31:00,
2013-08-04 22:46:00,68.6,54.0,29.60,SSE,162,0.0,-999.0,61,-99.99,,,0.00,weatherlink.com 1.10,2013-08-05 04:46:00,
2013-08-04 23:01:00,68.8,54.0,29.60,South,178,0.0,-999.0,60,-99.99,,,0.00,weatherlink.com 1.10,2013-08-05 05:01:00,
2013-08-04 23:16:00,68.3,54.0,29.59,South,178,0.0,-999.0,60,-99.99,,,0.00,weatherlink.com 1.10,2013-08-05 05:16:00,
2013-08-04 23:31:00,68.1,54.0,29.59,SSE,160,4.0,-999.0,61,-99.99,,,0.00,weatherlink.com 1.10,2013-08-05 05:31:00,
2013-08-04 23:46:00,69.2,54.0,29.56,WNW,302,0.0,-999.0,58,-99.99,,,0.00,weatherlink.com 1.10,2013-08-05 05:46:00,